Time;durP1;ratioP1;P1;durP2;ratioP2;P2;SDS_P1;SDS_P2;PMS_P1;PMS_P2;Temp;Humidity;BMP_temperature;BMP_pressure;BME280_temperature;BME280_humidity;BME280_pressure;Samples;Min_cycle;Max_cycle;Signal;HPM_P1;HPM_P2
2019/12/03 00:01:01;;;;;;;50.5;39.9;;;;;;;;;;;;;
2019/12/03 00:03:27;;;;;;;52.4;42.2;;;;;;;;;;;;;
2019/12/03 00:05:58;;;;;;;46.2;37.6;;;;;;;;;;;;;
2019/12/03 00:10:48;;;;;;;44.6;37.8;;;;;;;;;;;;;
2019/12/03 00:13:11;;;;;;;42.6;37;;;;;;;;;;;;;
2019/12/03 00:15:37;;;;;;;44.1;36.6;;;;;;;;;;;;;
2019/12/03 00:18:06;;;;;;;41.8;33.8;;;;;;;;;;;;;
2019/12/03 00:20:28;;;;;;;40;33.2;;;;;;;;;;;;;
2019/12/03 00:23:05;;;;;;;40.4;32.8;;;;;;;;;;;;;
2019/12/03 00:25:27;;;;;;;41.8;34.2;;;;;;;;;;;;;
2019/12/03 00:27:58;;;;;;;42.7;34.9;;;;;;;;;;;;;
2019/12/03 00:30:35;;;;;;;41.4;35.4;;;;;;;;;;;;;
2019/12/03 00:32:57;;;;;;;41.8;34.9;;;;;;;;;;;;;
2019/12/03 00:35:16;;;;;;;41.6;34.5;;;;;;;;;;;;;
2019/12/03 00:37:38;;;;;;;40.4;33;;;;;;;;;;;;;
2019/12/03 00:40:12;;;;;;;36.1;30.6;;;;;;;;;;;;;
2019/12/03 00:42:59;;;;;;;36.6;29.9;;;;;;;;;;;;;
2019/12/03 00:45:09;;;;;;;35.6;29;;;;;;;;;;;;;
2019/12/03 00:47:31;;;;;;;35.2;28.9;;;;;;;;;;;;;
2019/12/03 00:49:54;;;;;;;36.2;30.3;;;;;;;;;;;;;
2019/12/03 00:52:19;;;;;;;37.1;30.6;;;;;;;;;;;;;
2019/12/03 00:54:53;;;;;;;36;30.4;;;;;;;;;;;;;
2019/12/03 00:57:16;;;;;;;37.5;31.2;;;;;;;;;;;;;
2019/12/03 01:00:06;;;;;;;38;31.5;;;;;;;;;;;;;
2019/12/03 01:04:47;;;;;;;37.8;31.2;;;;;;;;;;;;;
2019/12/03 01:07:12;;;;;;;39;31.2;;;;;;;;;;;;;
2019/12/03 01:09:37;;;;;;;41.1;33.8;;;;;;;;;;;;;
2019/12/03 01:12:07;;;;;;;41.5;33.6;;;;;;;;;;;;;
2019/12/03 01:14:31;;;;;;;40.1;32.8;;;;;;;;;;;;;
2019/12/03 01:17:01;;;;;;;41.7;33.7;;;;;;;;;;;;;
2019/12/03 01:19:23;;;;;;;41.7;33.7;;;;;;;;;;;;;
2019/12/03 01:21:50;;;;;;;43;35.1;;;;;;;;;;;;;
2019/12/03 01:24:12;;;;;;;44.5;35.4;;;;;;;;;;;;;
2019/12/03 01:26:37;;;;;;;42.3;34;;;;;;;;;;;;;
2019/12/03 01:29:02;;;;;;;43.8;35.5;;;;;;;;;;;;;
2019/12/03 01:31:29;;;;;;;39;32.9;;;;;;;;;;;;;
2019/12/03 01:33:57;;;;;;;42.8;35.1;;;;;;;;;;;;;
2019/12/03 01:36:19;;;;;;;46.9;35.4;;;;;;;;;;;;;
2019/12/03 01:39:22;;;;;;;44.6;36.1;;;;;;;;;;;;;
2019/12/03 01:41:52;;;;;;;47.8;37.4;;;;;;;;;;;;;
2019/12/03 01:44:19;;;;;;;47.3;36.7;;;;;;;;;;;;;
2019/12/03 01:46:48;;;;;;;48.5;37.6;;;;;;;;;;;;;
2019/12/03 01:49:12;;;;;;;51.4;40.1;;;;;;;;;;;;;
2019/12/03 01:51:38;;;;;;;50.9;39.9;;;;;;;;;;;;;
2019/12/03 01:54:12;;;;;;;52.4;40.3;;;;;;;;;;;;;
2019/12/03 01:56:31;;;;;;;49.7;38.7;;;;;;;;;;;;;
2019/12/03 01:58:55;;;;;;;52.5;39.6;;;;;;;;;;;;;
2019/12/03 02:01:34;;;;;;;51.7;40;;;;;;;;;;;;;
2019/12/03 02:03:50;;;;;;;51.6;39.9;;;;;;;;;;;;;
2019/12/03 02:06:16;;;;;;;59.7;41;;;;;;;;;;;;;
2019/12/03 02:08:42;;;;;;;56.6;39.9;;;;;;;;;;;;;
2019/12/03 02:11:07;;;;;;;44.7;35.3;;;;;;;;;;;;;
2019/12/03 02:13:33;;;;;;;40.8;32.8;;;;;;;;;;;;;
2019/12/03 02:17:05;;;;;;;32.2;25.9;;;;;;;;;;;;;
2019/12/03 02:18:28;;;;;;;37.8;28.5;;;;;;;;;;;;;
2019/12/03 02:20:51;;;;;;;33.1;25.9;;;;;;;;;;;;;
2019/12/03 02:23:53;;;;;;;35.9;28.7;;;;;;;;;;;;;
2019/12/03 02:25:44;;;;;;;41.2;30.8;;;;;;;;;;;;;
2019/12/03 02:28:07;;;;;;;41.6;31;;;;;;;;;;;;;
2019/12/03 02:30:33;;;;;;;40.2;31;;;;;;;;;;;;;
2019/12/03 02:33:00;;;;;;;41;32.6;;;;;;;;;;;;;
2019/12/03 02:35:24;;;;;;;45.7;32.7;;;;;;;;;;;;;
2019/12/03 02:37:49;;;;;;;39.2;29.1;;;;;;;;;;;;;
2019/12/03 02:40:15;;;;;;;33.9;26.4;;;;;;;;;;;;;
2019/12/03 02:42:42;;;;;;;37.5;27;;;;;;;;;;;;;
2019/12/03 02:45:06;;;;;;;37.1;27.3;;;;;;;;;;;;;
2019/12/03 02:47:31;;;;;;;36.1;28.5;;;;;;;;;;;;;
2019/12/03 02:50:14;;;;;;;36.7;27.9;;;;;;;;;;;;;
2019/12/03 02:52:34;;;;;;;39;29.6;;;;;;;;;;;;;
2019/12/03 02:57:30;;;;;;;41.4;28.8;;;;;;;;;;;;;
2019/12/03 03:00:35;;;;;;;46.2;34.9;;;;;;;;;;;;;
2019/12/03 03:02:59;;;;;;;45.5;34.7;;;;;;;;;;;;;
2019/12/03 03:05:27;;;;;;;45.9;33.5;;;;;;;;;;;;;
2019/12/03 03:12:50;;;;;;;52.7;37.8;;;;;;;;;;;;;
2019/12/03 03:15:15;;;;;;;48;36.5;;;;;;;;;;;;;
2019/12/03 03:17:42;;;;;;;65.3;44.2;;;;;;;;;;;;;
2019/12/03 03:20:06;;;;;;;71.7;50.9;;;;;;;;;;;;;
2019/12/03 03:22:37;;;;;;;70.9;50.9;;;;;;;;;;;;;
2019/12/03 03:24:56;;;;;;;73;49;;;;;;;;;;;;;
2019/12/03 03:27:27;;;;;;;73.5;50.4;;;;;;;;;;;;;
2019/12/03 03:29:50;;;;;;;63.3;45.2;;;;;;;;;;;;;
2019/12/03 03:34:54;;;;;;;67.1;42.8;;;;;;;;;;;;;
2019/12/03 03:37:16;;;;;;;52.6;36.2;;;;;;;;;;;;;
2019/12/03 03:39:40;;;;;;;43.2;31.9;;;;;;;;;;;;;
2019/12/03 03:42:10;;;;;;;37.8;27.3;;;;;;;;;;;;;
2019/12/03 03:44:36;;;;;;;37.2;27.3;;;;;;;;;;;;;
2019/12/03 03:47:07;;;;;;;34.5;25.3;;;;;;;;;;;;;
2019/12/03 03:49:31;;;;;;;35.3;26.2;;;;;;;;;;;;;
2019/12/03 03:52:06;;;;;;;37.3;27.4;;;;;;;;;;;;;
2019/12/03 03:54:40;;;;;;;38.7;28.6;;;;;;;;;;;;;
2019/12/03 03:57:03;;;;;;;42.3;30.9;;;;;;;;;;;;;
2019/12/03 03:59:35;;;;;;;43.1;31.7;;;;;;;;;;;;;
2019/12/03 04:05:23;;;;;;;47.8;33;;;;;;;-0.26;81.90332;947.0081;;;;
2019/12/03 04:07:40;;;;;;;41.9;30.3;;;;;;;-0.2;81.20117;947.0517;;;;
2019/12/03 04:10:06;;;;;;;44.2;32;;;;;;;-0.13;80.59082;947.0558;;;;
2019/12/03 04:12:45;;;;;;;48;33.3;;;;;;;-0.36;81.28223;947.1152;;;;
2019/12/03 04:15:12;;;;;;;48.8;33.7;;;;;;;-0.42;81.77148;947.1106;;;;
2019/12/03 04:17:36;;;;;;;48.5;33;;;;;;;-0.39;81.79883;946.9458;;;;
2019/12/03 04:20:12;;;;;;;46.5;33.2;;;;;;;-0.35;81.78516;946.9822;;;;
2019/12/03 04:22:37;;;;;;;53.6;36.1;;;;;;;-0.35;82.11914;947.0789;;;;
2019/12/03 04:25:15;;;;;;;47.5;32.6;;;;;;;-0.28;82.27637;947.0909;;;;
2019/12/03 04:27:43;;;;;;;46.6;32.8;;;;;;;-0.29;81.63965;947.1041;;;;
2019/12/03 04:30:26;;;;;;;43.4;31.2;;;;;;;-0.26;81.30176;947.1223;;;;
2019/12/03 04:32:54;;;;;;;48.7;34;;;;;;;-0.21;81.57813;946.9822;;;;
2019/12/03 04:35:21;;;;;;;51.5;30.8;;;;;;;-0.26;81.93652;946.9542;;;;
2019/12/03 04:38:17;;;;;;;45.8;30.3;;;;;;;-0.36;82.72754;946.9991;;;;
2019/12/03 04:43:11;;;;;;;42.3;29.8;;;;;;;-0.25;81.9043;947.1536;;;;
2019/12/03 04:45:43;;;;;;;44.7;30.5;;;;;;;-0.16;81.6416;947.1923;;;;
2019/12/03 04:51:28;;;;;;;46.6;32.5;;;;;;;-0.19;82.68359;947.3;;;;
2019/12/03 04:53:52;;;;;;;46.1;30.8;;;;;;;-0.12;81.81738;947.363;;;;
2019/12/03 04:58:59;;;;;;;42.3;30.1;;;;;;;-0.13;82.2373;947.1689;;;;
2019/12/03 05:01:26;;;;;;;40.7;29.4;;;;;;;-0.21;82.74707;947.0989;;;;
2019/12/03 05:03:51;;;;;;;43.2;30.7;;;;;;;-0.21;82.69141;947.1083;;;;
2019/12/03 05:06:27;;;;;;;44.8;31.7;;;;;;;-0.21;83.04688;947.166;;;;
2019/12/03 05:09:08;;;;;;;44.1;31;;;;;;;-0.19;83.19727;947.1312;;;;
2019/12/03 05:11:40;;;;;;;58.9;38.6;;;;;;;-0.27;83.77148;947.1398;;;;
2019/12/03 05:14:08;;;;;;;52.6;36.9;;;;;;;-0.12;83.26758;947.2073;;;;
2019/12/03 05:16:54;;;;;;;62.5;41.8;;;;;;;0;82.86523;947.2274;;;;
2019/12/03 05:19:16;;;;;;;61.6;43.2;;;;;;;;;;;;;
2019/12/03 05:21:45;;;;;;;61.6;42.9;;;;;;;;;;;;;
2019/12/03 05:24:13;;;;;;;63.6;42.2;;;;;;;;;;;;;
2019/12/03 05:26:41;;;;;;;62;41.9;;;;;;;;;;;;;
2019/12/03 05:29:04;;;;;;;67.8;45.3;;;;;;;;;;;;;
2019/12/03 05:31:34;;;;;;;72.5;47.7;;;;;;;;;;;;;
2019/12/03 05:33:54;;;;;;;73.1;48.2;;;;;;;;;;;;;
2019/12/03 05:36:20;;;;;;;82;51;;;;;;;;;;;;;
2019/12/03 05:39:11;;;;;;;76.1;49.7;;;;;;;;;;;;;
2019/12/03 05:41:41;;;;;;;74.3;49.3;;;;;;;;;;;;;
2019/12/03 05:44:06;;;;;;;72.7;47.6;;;;;;;;;;;;;
2019/12/03 05:49:07;;;;;;;83.1;51.6;;;;;;;;;;;;;
2019/12/03 05:51:29;;;;;;;79.5;49.7;;;;;;;;;;;;;
2019/12/03 05:53:55;;;;;;;245.1;195.8;;;;;;;;;;;;;
2019/12/03 05:56:31;;;;;;;200.3;157.7;;;;;;;;;;;;;
2019/12/03 05:58:45;;;;;;;230.9;165.9;;;;;;;;;;;;;
2019/12/03 06:01:11;;;;;;;75.2;49.1;;;;;;;;;;;;;
2019/12/03 06:03:39;;;;;;;87.9;60.7;;;;;;;;;;;;;
2019/12/03 06:06:03;;;;;;;81.8;55.2;;;;;;;;;;;;;
2019/12/03 06:08:30;;;;;;;72.4;47.9;;;;;;;;;;;;;
2019/12/03 06:10:56;;;;;;;74.8;46.9;;;;;;;;;;;;;
2019/12/03 06:13:25;;;;;;;67.6;46.4;;;;;;;;;;;;;
2019/12/03 06:16:11;;;;;;;67.6;44.5;;;;;;;;;;;;;
2019/12/03 06:18:27;;;;;;;90.2;60.8;;;;;;;;;;;;;
2019/12/03 06:20:54;;;;;;;104.2;69.8;;;;;;;;;;;;;
2019/12/03 06:23:19;;;;;;;91;61.5;;;;;;;;;;;;;
2019/12/03 06:25:49;;;;;;;186.3;143.5;;;;;;;;;;;;;
2019/12/03 06:28:20;;;;;;;93.5;66.9;;;;;;;;;;;;;
2019/12/03 06:30:45;;;;;;;71.8;45.4;;;;;;;;;;;;;
2019/12/03 06:33:15;;;;;;;74.7;46.2;;;;;;;;;;;;;
2019/12/03 06:35:46;;;;;;;69.4;45.4;;;;;;;;;;;;;
2019/12/03 06:38:11;;;;;;;68;43;;;;;;;;;;;;;
2019/12/03 06:40:38;;;;;;;67.7;43.8;;;;;;;;;;;;;
2019/12/03 06:43:04;;;;;;;62.1;41.8;;;;;;;;;;;;;
2019/12/03 06:45:28;;;;;;;61.5;39.8;;;;;;;;;;;;;
2019/12/03 06:48:07;;;;;;;59.9;38.4;;;;;;;;;;;;;
2019/12/03 06:52:45;;;;;;;56.8;36.9;;;;;;;;;;;;;
2019/12/03 06:55:08;;;;;;;52.1;35.5;;;;;;;;;;;;;
2019/12/03 06:57:39;;;;;;;57;38.4;;;;;;;;;;;;;
2019/12/03 07:00:04;;;;;;;61.5;40.8;;;;;;;;;;;;;
2019/12/03 07:02:29;;;;;;;55.9;38.1;;;;;;;;;;;;;
2019/12/03 07:04:58;;;;;;;36.2;24.3;;;;;;;;;;;;;
2019/12/03 07:07:21;;;;;;;37.5;24;;;;;;;;;;;;;
2019/12/03 07:09:48;;;;;;;42.3;26;;;;;;;;;;;;;
2019/12/03 07:17:14;;;;;;;48.5;29.3;;;;;;;;;;;;;
2019/12/03 07:19:39;;;;;;;48.7;30.1;;;;;;;;;;;;;
2019/12/03 07:22:02;;;;;;;45.6;29.5;;;;;;;;;;;;;
2019/12/03 07:24:26;;;;;;;36;24.4;;;;;;;;;;;;;
2019/12/03 07:26:58;;;;;;;26.3;17.8;;;;;;;;;;;;;
2019/12/03 07:29:21;;;;;;;43.1;24.6;;;;;;;;;;;;;
2019/12/03 07:31:51;;;;;;;40.2;26.7;;;;;;;;;;;;;
2019/12/03 07:34:16;;;;;;;34.5;24.3;;;;;;;;;;;;;
2019/12/03 07:36:44;;;;;;;32.6;22;;;;;;;;;;;;;
2019/12/03 07:39:08;;;;;;;30.9;21.6;;;;;;;;;;;;;
2019/12/03 07:41:46;;;;;;;29.2;22.3;;;;;;;;;;;;;
2019/12/03 07:44:08;;;;;;;33.6;24;;;;;;;;;;;;;
2019/12/03 07:46:33;;;;;;;31;22;;;;;;;;;;;;;
2019/12/03 07:51:32;;;;;;;22.1;17.3;;;;;;;;;;;;;
2019/12/03 07:53:56;;;;;;;22.3;16.9;;;;;;;;;;;;;
2019/12/03 07:56:21;;;;;;;13.5;10.3;;;;;;;;;;;;;
2019/12/03 07:58:52;;;;;;;14.5;10;;;;;;;;;;;;;
2019/12/03 08:01:20;;;;;;;13.1;10.5;;;;;;;;;;;;;
2019/12/03 08:03:49;;;;;;;13.2;10.7;;;;;;;;;;;;;
2019/12/03 08:06:14;;;;;;;12.4;7.7;;;;;;;;;;;;;
2019/12/03 08:11:02;;;;;;;9.1;6.4;;;;;;;;;;;;;
2019/12/03 08:13:31;;;;;;;10.5;6;;;;;;;;;;;;;
2019/12/03 08:15:58;;;;;;;11.9;5.8;;;;;;;;;;;;;
2019/12/03 08:18:28;;;;;;;15.6;9;;;;;;;;;;;;;
2019/12/03 08:21:01;;;;;;;17.5;9.4;;;;;;;;;;;;;
2019/12/03 08:23:39;;;;;;;16.3;8.8;;;;;;;;;;;;;
2019/12/03 08:25:45;;;;;;;17.7;10.6;;;;;;;;;;;;;
2019/12/03 08:28:11;;;;;;;14;8.6;;;;;;;;;;;;;
2019/12/03 08:30:41;;;;;;;17.2;10.1;;;;;;;;;;;;;
2019/12/03 08:33:06;;;;;;;17.9;11.1;;;;;;;;;;;;;
2019/12/03 08:35:31;;;;;;;10.5;8.2;;;;;;;;;;;;;
2019/12/03 08:38:02;;;;;;;9.6;7;;;;;;;;;;;;;
2019/12/03 08:40:24;;;;;;;12;7.8;;;;;;;;;;;;;
2019/12/03 08:45:21;;;;;;;10.7;6.8;;;;;;;;;;;;;
2019/12/03 08:47:41;;;;;;;11.1;7.7;;;;;;;;;;;;;
2019/12/03 08:50:18;;;;;;;12.5;7.7;;;;;;;;;;;;;
2019/12/03 08:52:50;;;;;;;17.7;9.5;;;;;;;;;;;;;
2019/12/03 08:55:13;;;;;;;24.4;17.6;;;;;;;;;;;;;
2019/12/03 08:57:40;;;;;;;16.1;10.5;;;;;;;;;;;;;
2019/12/03 09:00:08;;;;;;;17.3;9.7;;;;;;;;;;;;;
2019/12/03 09:05:02;;;;;;;15;9.2;;;;;;;;;;;;;
2019/12/03 09:07:34;;;;;;;11.9;8.8;;;;;;;;;;;;;
2019/12/03 09:09:58;;;;;;;12.7;8.9;;;;;;;;;;;;;
2019/12/03 09:12:31;;;;;;;11.6;8.4;;;;;;;;;;;;;
2019/12/03 09:14:56;;;;;;;11.1;8.5;;;;;;;;;;;;;
2019/12/03 09:17:29;;;;;;;17.9;11.1;;;;;;;;;;;;;
2019/12/03 09:19:52;;;;;;;13.9;10.3;;;;;;;;;;;;;
2019/12/03 09:22:23;;;;;;;18.4;12.3;;;;;;;;;;;;;
2019/12/03 09:24:59;;;;;;;21.8;16.3;;;;;;;;;;;;;
2019/12/03 09:27:29;;;;;;;26.3;16.7;;;;;;;;;;;;;
2019/12/03 09:29:53;;;;;;;20.7;15.1;;;;;;;;;;;;;
2019/12/03 09:32:22;;;;;;;23.8;16;;;;;;;;;;;;;
2019/12/03 09:34:48;;;;;;;23.6;16.5;;;;;;;;;;;;;
2019/12/03 09:37:16;;;;;;;23.5;15.2;;;;;;;;;;;;;
2019/12/03 09:39:40;;;;;;;21.9;14.5;;;;;;;;;;;;;
2019/12/03 09:42:08;;;;;;;26.5;16;;;;;;;;;;;;;
2019/12/03 09:44:30;;;;;;;31.5;16.7;;;;;;;;;;;;;
2019/12/03 09:47:00;;;;;;;22.3;16.3;;;;;;;;;;;;;
2019/12/03 09:49:26;;;;;;;25.7;17.8;;;;;;;;;;;;;
2019/12/03 09:51:50;;;;;;;24.3;16.2;;;;;;;;;;;;;
2019/12/03 09:54:15;;;;;;;29.3;16.2;;;;;;;;;;;;;
2019/12/03 09:56:43;;;;;;;23.7;14.2;;;;;;;;;;;;;
2019/12/03 09:59:12;;;;;;;18.1;13.8;;;;;;;;;;;;;
2019/12/03 10:01:46;;;;;;;19.8;15;;;;;;;;;;;;;
2019/12/03 10:04:02;;;;;;;26.9;15.2;;;;;;;;;;;;;
2019/12/03 10:06:24;;;;;;;23;15.2;;;;;;;;;;;;;
2019/12/03 10:08:49;;;;;;;23;15.8;;;;;;;;;;;;;
2019/12/03 10:11:18;;;;;;;23.8;15;;;;;;;;;;;;;
2019/12/03 10:13:43;;;;;;;20.8;15;;;;;;;;;;;;;
2019/12/03 10:16:16;;;;;;;23.8;15.2;;;;;;;;;;;;;
2019/12/03 10:18:35;;;;;;;20.6;14.5;;;;;;;;;;;;;
2019/12/03 10:20:59;;;;;;;21;15.5;;;;;;;;;;;;;
2019/12/03 10:23:23;;;;;;;25.7;16.2;;;;;;;;;;;;;
2019/12/03 10:26:12;;;;;;;23.5;17.2;;;;;;;;;;;;;
2019/12/03 10:28:15;;;;;;;27.8;18.1;;;;;;;;;;;;;
2019/12/03 10:30:41;;;;;;;22.8;17.5;;;;;;;;;;;;;
2019/12/03 10:33:13;;;;;;;23;17.3;;;;;;;;;;;;;
2019/12/03 10:35:37;;;;;;;25.2;17.5;;;;;;;;;;;;;
2019/12/03 10:38:02;;;;;;;22;16.5;;;;;;;;;;;;;
2019/12/03 10:41:57;;;;;;;25;16.3;;;;;;;;;;;;;
2019/12/03 10:42:53;;;;;;;23.1;14.8;;;;;;;;;;;;;
2019/12/03 10:45:19;;;;;;;24.6;15.8;;;;;;;;;;;;;
2019/12/03 10:47:46;;;;;;;23.5;14.6;;;;;;;;;;;;;
2019/12/03 10:50:10;;;;;;;18;12.7;;;;;;;;;;;;;
2019/12/03 10:52:34;;;;;;;17.1;12.8;;;;;;;;;;;;;
2019/12/03 10:54:59;;;;;;;20.4;14.6;;;;;;;;;;;;;
2019/12/03 10:57:24;;;;;;;20.4;14.6;;;;;;;;;;;;;
2019/12/03 10:59:50;;;;;;;21.8;14.9;;;;;;;;;;;;;
2019/12/03 11:02:14;;;;;;;24.4;15.8;;;;;;;;;;;;;
2019/12/03 11:04:40;;;;;;;23.8;17;;;;;;;;;;;;;
2019/12/03 11:07:04;;;;;;;25.3;16.9;;;;;;;;;;;;;
2019/12/03 11:09:32;;;;;;;19.6;13.9;;;;;;;;;;;;;
2019/12/03 11:11:54;;;;;;;23.1;14.5;;;;;;;;;;;;;
2019/12/03 11:14:20;;;;;;;19;13.8;;;;;;;;;;;;;
2019/12/03 11:16:55;;;;;;;22.7;14.6;;;;;;;;;;;;;
2019/12/03 11:19:39;;;;;;;20.8;15.2;;;;;;;;;;;;;
2019/12/03 11:21:41;;;;;;;25.4;15.1;;;;;;;;;;;;;
2019/12/03 11:24:06;;;;;;;27.1;17.4;;;;;;;;;;;;;
2019/12/03 11:26:33;;;;;;;17.2;13;;;;;;;;;;;;;
2019/12/03 11:28:57;;;;;;;15.3;12.2;;;;;;;;;;;;;
2019/12/03 11:31:22;;;;;;;14.9;12;;;;;;;;;;;;;
2019/12/03 11:33:48;;;;;;;14;11.1;;;;;;;;;;;;;
2019/12/03 11:36:16;;;;;;;14.1;10.5;;;;;;;;;;;;;
2019/12/03 11:38:50;;;;;;;18.1;12.4;;;;;;;;;;;;;
2019/12/03 11:41:14;;;;;;;17;11.5;;;;;;;;;;;;;
2019/12/03 11:44:12;;;;;;;19.6;11;;;;;;;;;;;;;
2019/12/03 11:46:01;;;;;;;15.8;11.3;;;;;;;;;;;;;
2019/12/03 11:48:25;;;;;;;16.6;11.7;;;;;;;;;;;;;
2019/12/03 11:50:49;;;;;;;17.1;12.5;;;;;;;;;;;;;
2019/12/03 11:53:28;;;;;;;16.4;11.9;;;;;;;;;;;;;
2019/12/03 11:55:54;;;;;;;12.4;9.3;;;;;;;;;;;;;
2019/12/03 11:58:17;;;;;;;12.8;9;;;;;;;;;;;;;
2019/12/03 12:00:49;;;;;;;10.6;8.3;;;;;;;;;;;;;
2019/12/03 12:03:14;;;;;;;12.9;8.7;;;;;;;;;;;;;
2019/12/03 12:05:45;;;;;;;12.4;8.5;;;;;;;;;;;;;
2019/12/03 12:08:04;;;;;;;12;8.7;;;;;;;;;;;;;
2019/12/03 12:10:32;;;;;;;16;10.3;;;;;;;;;;;;;
2019/12/03 12:13:01;;;;;;;14.7;10.1;;;;;;;;;;;;;
2019/12/03 12:15:22;;;;;;;17.8;11;;;;;;;;;;;;;
2019/12/03 12:17:48;;;;;;;15.7;11.1;;;;;;;;;;;;;
2019/12/03 12:20:12;;;;;;;16;10.9;;;;;;;;;;;;;
2019/12/03 12:22:37;;;;;;;16;11.2;;;;;;;;;;;;;
2019/12/03 12:25:08;;;;;;;16.4;12.2;;;;;;;;;;;;;
2019/12/03 12:27:39;;;;;;;17.9;12;;;;;;;;;;;;;
2019/12/03 12:30:06;;;;;;;17.4;12.1;;;;;;;;;;;;;
2019/12/03 12:32:33;;;;;;;15.3;10.9;;;;;;;;;;;;;
2019/12/03 12:34:58;;;;;;;15.4;11.3;;;;;;;;;;;;;
2019/12/03 12:37:23;;;;;;;17.7;12;;;;;;;;;;;;;
2019/12/03 12:40:14;;;;;;;15.8;11.7;;;;;;;;;;;;;
2019/12/03 12:42:36;;;;;;;25.3;14.8;;;;;;;;;;;;;
2019/12/03 12:45:03;;;;;;;20.8;13.1;;;;;;;;;;;;;
2019/12/03 12:47:32;;;;;;;17.3;12.2;;;;;;;;;;;;;
2019/12/03 12:49:55;;;;;;;19.5;12.4;;;;;;;;;;;;;
2019/12/03 12:52:23;;;;;;;17.8;12.5;;;;;;;;;;;;;
2019/12/03 12:54:51;;;;;;;15.9;11.8;;;;;;;;;;;;;
2019/12/03 12:57:11;;;;;;;18.1;12.5;;;;;;;;;;;;;
2019/12/03 12:59:42;;;;;;;14.8;10.9;;;;;;;;;;;;;
2019/12/03 13:02:07;;;;;;;13.8;10.3;;;;;;;;;;;;;
2019/12/03 13:04:30;;;;;;;12.9;10.5;;;;;;;;;;;;;
2019/12/03 13:06:55;;;;;;;13.5;10.5;;;;;;;;;;;;;
2019/12/03 13:09:22;;;;;;;12.2;9.7;;;;;;;;;;;;;
2019/12/03 13:11:45;;;;;;;12.4;9.9;;;;;;;;;;;;;
2019/12/03 13:14:16;;;;;;;14.1;9.9;;;;;;;;;;;;;
2019/12/03 13:16:40;;;;;;;12.5;8.8;;;;;;;;;;;;;
2019/12/03 13:19:05;;;;;;;10.6;8.4;;;;;;;;;;;;;
2019/12/03 13:21:32;;;;;;;9.2;7.8;;;;;;;;;;;;;
2019/12/03 13:23:57;;;;;;;8.1;6.7;;;;;;;;;;;;;
2019/12/03 13:26:20;;;;;;;9;6.6;;;;;;;;;;;;;
2019/12/03 13:28:46;;;;;;;8.5;6.5;;;;;;;;;;;;;
2019/12/03 13:31:40;;;;;;;8.3;6.5;;;;;;;;;;;;;
2019/12/03 13:33:59;;;;;;;7.9;6.6;;;;;;;;;;;;;
2019/12/03 13:36:11;;;;;;;8.7;6.8;;;;;;;;;;;;;
2019/12/03 13:38:36;;;;;;;10.3;6.9;;;;;;;;;;;;;
2019/12/03 13:41:07;;;;;;;9.2;7.1;;;;;;;;;;;;;
2019/12/03 13:43:34;;;;;;;11.8;7.6;;;;;;;;;;;;;
2019/12/03 13:46:00;;;;;;;11.9;7.7;;;;;;;;;;;;;
2019/12/03 13:48:26;;;;;;;9.3;7.6;;;;;;;;;;;;;
2019/12/03 13:50:55;;;;;;;9.8;7.6;;;;;;;;;;;;;
2019/12/03 13:53:18;;;;;;;13.1;8.8;;;;;;;;;;;;;
2019/12/03 13:55:43;;;;;;;10.9;8.8;;;;;;;;;;;;;
2019/12/03 13:58:10;;;;;;;12.3;9.7;;;;;;;;;;;;;
2019/12/03 14:00:36;;;;;;;14;10.6;;;;;;;;;;;;;
2019/12/03 14:03:02;;;;;;;17.1;9.7;;;;;;;;;;;;;
2019/12/03 14:05:26;;;;;;;17.6;10.3;;;;;;;;;;;;;
2019/12/03 14:07:53;;;;;;;13.7;9.4;;;;;;;;;;;;;
2019/12/03 14:10:18;;;;;;;22.4;9.4;;;;;;;;;;;;;
2019/12/03 14:12:44;;;;;;;20.9;10;;;;;;;;;;;;;
2019/12/03 14:15:08;;;;;;;18.5;10.7;;;;;;;;;;;;;
2019/12/03 14:17:38;;;;;;;16.7;10.3;;;;;;;;;;;;;
2019/12/03 14:20:01;;;;;;;17.8;10.1;;;;;;;;;;;;;
2019/12/03 14:22:24;;;;;;;19.1;11.4;;;;;;;;;;;;;
2019/12/03 14:24:56;;;;;;;19;11.3;;;;;;;;;;;;;
2019/12/03 14:30:01;;;;;;;21.8;12.1;;;;;;;;;;;;;
2019/12/03 14:32:23;;;;;;;17.8;11.4;;;;;;;;;;;;;
2019/12/03 14:34:50;;;;;;;15.7;11.4;;;;;;;;;;;;;
2019/12/03 14:37:18;;;;;;;19.2;11.7;;;;;;;;;;;;;
2019/12/03 14:39:40;;;;;;;18.3;11.7;;;;;;;;;;;;;
2019/12/03 14:42:06;;;;;;;15.6;11.3;;;;;;;;;;;;;
2019/12/03 14:44:36;;;;;;;15.9;10.3;;;;;;;;;;;;;
2019/12/03 14:47:01;;;;;;;16;11.6;;;;;;;;;;;;;
2019/12/03 14:49:25;;;;;;;16.8;12.6;;;;;;;;;;;;;
2019/12/03 14:51:50;;;;;;;22.7;15.5;;;;;;;;;;;;;
2019/12/03 14:54:17;;;;;;;22.6;15.7;;;;;;;;;;;;;
2019/12/03 14:56:42;;;;;;;24.5;15.9;;;;;;;;;;;;;
2019/12/03 14:59:07;;;;;;;24.9;16.3;;;;;;;;;;;;;
2019/12/03 15:01:37;;;;;;;24.5;14.9;;;;;;;;;;;;;
2019/12/03 15:04:03;;;;;;;21;14.9;;;;;;;;;;;;;
2019/12/03 15:06:26;;;;;;;22.5;15.8;;;;;;;;;;;;;
2019/12/03 15:08:55;;;;;;;24.2;15.9;;;;;;;;;;;;;
2019/12/03 15:11:16;;;;;;;22.2;15.8;;;;;;;;;;;;;
2019/12/03 15:13:42;;;;;;;17.5;12.9;;;;;;;;;;;;;
2019/12/03 15:16:07;;;;;;;20.5;15.7;;;;;;;;;;;;;
2019/12/03 15:18:33;;;;;;;24.9;16.3;;;;;;;;;;;;;
2019/12/03 15:20:59;;;;;;;26.6;15.7;;;;;;;;;;;;;
2019/12/03 15:23:24;;;;;;;26.4;15.8;;;;;;;;;;;;;
2019/12/03 15:25:53;;;;;;;21.4;15.1;;;;;;;;;;;;;
2019/12/03 15:28:14;;;;;;;19.5;13.9;;;;;;;;;;;;;
2019/12/03 15:30:42;;;;;;;19.4;14.4;;;;;;;;;;;;;
2019/12/03 15:33:06;;;;;;;22;14.5;;;;;;;;;;;;;
2019/12/03 15:35:35;;;;;;;25.4;15.3;;;;;;;;;;;;;
2019/12/03 15:38:18;;;;;;;24.4;15.4;;;;;;;;;;;;;
2019/12/03 15:40:41;;;;;;;23.4;14.2;;;;;;;;;;;;;
2019/12/03 15:43:17;;;;;;;21.4;13.4;;;;;;;;;;;;;
2019/12/03 15:45:43;;;;;;;19.2;14.2;;;;;;;;;;;;;
2019/12/03 15:48:11;;;;;;;18.8;14.4;;;;;;;;;;;;;
2019/12/03 15:50:36;;;;;;;18;14.4;;;;;;;;;;;;;
2019/12/03 15:53:04;;;;;;;22;16.4;;;;;;;;;;;;;
2019/12/03 15:55:35;;;;;;;24.6;18.6;;;;;;;;;;;;;
2019/12/03 15:57:52;;;;;;;24.4;19;;;;;;;;;;;;;
2019/12/03 16:00:25;;;;;;;25.8;18.9;;;;;;;;;;;;;
2019/12/03 16:02:45;;;;;;;26.1;18.4;;;;;;;;;;;;;
2019/12/03 16:05:08;;;;;;;27.7;18.1;;;;;;;;;;;;;
2019/12/03 16:07:34;;;;;;;24.7;17.5;;;;;;;;;;;;;
2019/12/03 16:10:06;;;;;;;27.7;17.9;;;;;;;;;;;;;
2019/12/03 16:12:27;;;;;;;36;24.2;;;;;;;;;;;;;
2019/12/03 16:14:50;;;;;;;40.7;27.2;;;;;;;;;;;;;
2019/12/03 16:17:16;;;;;;;25.5;17.6;;;;;;;;;;;;;
2019/12/03 16:19:43;;;;;;;22.1;16.2;;;;;;;;;;;;;
2019/12/03 16:22:09;;;;;;;24.5;16.3;;;;;;;;;;;;;
2019/12/03 16:24:33;;;;;;;28.7;19.5;;;;;;;;;;;;;
2019/12/03 16:27:13;;;;;;;25.8;19.5;;;;;;;;;;;;;
2019/12/03 16:29:25;;;;;;;36.3;23.6;;;;;;;;;;;;;
2019/12/03 16:31:51;;;;;;;37.9;25.9;;;;;;;;;;;;;
2019/12/03 16:34:15;;;;;;;37.8;24.4;;;;;;;;;;;;;
2019/12/03 16:36:45;;;;;;;50.5;33.7;;;;;;;;;;;;;
2019/12/03 16:39:10;;;;;;;53.2;35.5;;;;;;;;;;;;;
2019/12/03 16:41:38;;;;;;;47.9;33.7;;;;;;;;;;;;;
2019/12/03 16:44:02;;;;;;;47.9;32;;;;;;;;;;;;;
2019/12/03 16:46:27;;;;;;;50.4;34.7;;;;;;;;;;;;;
2019/12/03 16:48:55;;;;;;;37.7;28.5;;;;;;;;;;;;;
2019/12/03 16:51:20;;;;;;;40.2;26.8;;;;;;;;;;;;;
2019/12/03 16:53:46;;;;;;;42.3;29.4;;;;;;;;;;;;;
2019/12/03 16:56:35;;;;;;;42.9;29.1;;;;;;;;;;;;;
2019/12/03 16:58:39;;;;;;;45.1;30.6;;;;;;;;;;;;;
2019/12/03 17:01:01;;;;;;;43.3;30.4;;;;;;;;;;;;;
2019/12/03 17:03:59;;;;;;;37.5;28.1;;;;;;;;;;;;;
2019/12/03 17:05:59;;;;;;;43.9;31.2;;;;;;;;;;;;;
2019/12/03 17:08:32;;;;;;;47.3;30.8;;;;;;;;;;;;;
2019/12/03 17:10:54;;;;;;;45.7;32.8;;;;;;;;;;;;;
2019/12/03 17:13:22;;;;;;;46.6;32.3;;;;;;;;;;;;;
2019/12/03 17:15:46;;;;;;;45.2;30;;;;;;;;;;;;;
2019/12/03 17:18:24;;;;;;;45.1;28.8;;;;;;;;;;;;;
2019/12/03 17:20:41;;;;;;;40.5;27.5;;;;;;;;;;;;;
2019/12/03 17:23:02;;;;;;;39.6;27.8;;;;;;;;;;;;;
2019/12/03 17:25:31;;;;;;;41;27.7;;;;;;;;;;;;;
2019/12/03 17:27:55;;;;;;;40;28.3;;;;;;;;;;;;;
2019/12/03 17:30:22;;;;;;;38.9;26.6;;;;;;;;;;;;;
2019/12/03 17:32:51;;;;;;;46.9;30.1;;;;;;;;;;;;;
2019/12/03 17:35:21;;;;;;;47.2;31.9;;;;;;;;;;;;;
2019/12/03 17:37:42;;;;;;;49.3;33.9;;;;;;;;;;;;;
2019/12/03 17:40:08;;;;;;;51.9;35.1;;;;;;;;;;;;;
2019/12/03 17:42:37;;;;;;;43;30.1;;;;;;;;;;;;;
2019/12/03 17:45:01;;;;;;;49.6;32.2;;;;;;;;;;;;;
2019/12/03 17:47:26;;;;;;;44.1;31.4;;;;;;;;;;;;;
2019/12/03 17:49:50;;;;;;;50.3;33;;;;;;;;;;;;;
2019/12/03 17:52:50;;;;;;;46.3;31.5;;;;;;;;;;;;;
2019/12/03 17:54:42;;;;;;;46.8;31.1;;;;;;;;;;;;;
2019/12/03 17:57:17;;;;;;;40.8;28.7;;;;;;;;;;;;;
2019/12/03 17:59:38;;;;;;;41.6;29.6;;;;;;;;;;;;;
2019/12/03 18:02:14;;;;;;;40;27.6;;;;;;;;;;;;;
2019/12/03 18:04:29;;;;;;;40;28.4;;;;;;;;;;;;;
2019/12/03 18:07:08;;;;;;;41.6;28.4;;;;;;;;;;;;;
2019/12/03 18:09:30;;;;;;;50.1;34.7;;;;;;;;;;;;;
2019/12/03 18:12:10;;;;;;;49.7;33.7;;;;;;;;;;;;;
2019/12/03 18:14:21;;;;;;;45.9;31.4;;;;;;;;;;;;;
2019/12/03 18:16:53;;;;;;;41.8;29.9;;;;;;;;;;;;;
2019/12/03 18:19:17;;;;;;;39.5;27.3;;;;;;;;;;;;;
2019/12/03 18:21:45;;;;;;;41.3;28.3;;;;;;;;;;;;;
2019/12/03 18:24:12;;;;;;;39.7;27.6;;;;;;;;;;;;;
2019/12/03 18:26:37;;;;;;;52.1;36.2;;;;;;;;;;;;;
2019/12/03 18:29:16;;;;;;;44.5;28.4;;;;;;;;;;;;;
2019/12/03 18:31:42;;;;;;;46.4;31.1;;;;;;;;;;;;;
2019/12/03 18:34:08;;;;;;;43.1;29.8;;;;;;;;;;;;;
2019/12/03 18:36:40;;;;;;;42.6;28;;;;;;;;;;;;;
2019/12/03 18:39:09;;;;;;;92.6;63.8;;;;;;;;;;;;;
2019/12/03 18:41:32;;;;;;;66;45.3;;;;;;;;;;;;;
2019/12/03 18:43:57;;;;;;;41.2;27.2;;;;;;;;;;;;;
2019/12/03 18:47:06;;;;;;;48.2;31.7;;;;;;;;;;;;;
2019/12/03 18:50:14;;;;;;;38.6;27.1;;;;;;;;;;;;;
2019/12/03 18:51:23;;;;;;;32.6;23.7;;;;;;;;;;;;;
2019/12/03 18:53:56;;;;;;;40.1;27;;;;;;;;;;;;;
2019/12/03 18:56:18;;;;;;;49.8;35.7;;;;;;;;;;;;;
2019/12/03 19:01:15;;;;;;;47.8;33.1;;;;;;;;;;;;;
2019/12/03 19:03:24;;;;;;;45.3;32.5;;;;;;;;;;;;;
2019/12/03 19:05:49;;;;;;;46.2;30.7;;;;;;;;;;;;;
2019/12/03 19:08:15;;;;;;;54.8;36.3;;;;;;;;;;;;;
2019/12/03 19:10:44;;;;;;;51.5;34.5;;;;;;;;;;;;;
2019/12/03 19:13:07;;;;;;;54.5;34.9;;;;;;;;;;;;;
2019/12/03 19:15:30;;;;;;;65.9;42.9;;;;;;;;;;;;;
2019/12/03 19:18:00;;;;;;;57.5;39;;;;;;;;;;;;;
2019/12/03 19:20:23;;;;;;;51.5;34.7;;;;;;;;;;;;;
2019/12/03 19:22:51;;;;;;;39.3;27.2;;;;;;;;;;;;;
2019/12/03 19:25:13;;;;;;;40.6;27.2;;;;;;;;;;;;;
2019/12/03 19:27:39;;;;;;;38.6;26.9;;;;;;;;;;;;;
2019/12/03 19:30:05;;;;;;;49;31.5;;;;;;;;;;;;;
2019/12/03 19:32:29;;;;;;;53.7;36.9;;;;;;;;;;;;;
2019/12/03 19:34:54;;;;;;;53.1;34.6;;;;;;;;;;;;;
2019/12/03 19:37:18;;;;;;;46.6;31.9;;;;;;;;;;;;;
2019/12/03 19:39:45;;;;;;;54.5;37.7;;;;;;;;;;;;;
2019/12/03 19:42:11;;;;;;;55.4;36.3;;;;;;;;;;;;;
2019/12/03 19:44:45;;;;;;;65.6;40.5;;;;;;;;;;;;;
2019/12/03 19:47:17;;;;;;;60.1;40.7;;;;;;;;;;;;;
2019/12/03 19:49:48;;;;;;;62.2;40.1;;;;;;;;;;;;;
2019/12/03 19:52:15;;;;;;;46;32.8;;;;;;;;;;;;;
2019/12/03 19:54:53;;;;;;;41.4;31.1;;;;;;;;;;;;;
2019/12/03 19:57:09;;;;;;;39.2;28.3;;;;;;;;;;;;;
2019/12/03 19:59:46;;;;;;;49.5;36;;;;;;;;;;;;;
2019/12/03 20:02:15;;;;;;;46;31.3;;;;;;;;;;;;;
2019/12/03 20:04:40;;;;;;;42.9;29.4;;;;;;;;;;;;;
2019/12/03 20:07:07;;;;;;;35.3;26.3;;;;;;;;;;;;;
2019/12/03 20:09:34;;;;;;;43.3;31.8;;;;;;;;;;;;;
2019/12/03 20:12:15;;;;;;;43.7;32.2;;;;;;;;;;;;;
2019/12/03 20:14:57;;;;;;;39.9;27.9;;;;;;;;;;;;;
2019/12/03 20:16:59;;;;;;;33.3;24;;;;;;;;;;;;;
2019/12/03 20:19:27;;;;;;;32.7;21.7;;;;;;;;;;;;;
2019/12/03 20:21:55;;;;;;;40.6;27.6;;;;;;;;;;;;;
2019/12/03 20:24:16;;;;;;;35.3;22.7;;;;;;;;;;;;;